Mesa Verde Natl Park, Colorado
Current Conditions -  °F | °C
As of 12:53 AM on Saturday 29 Nov 2014 (Local Time) from KCEZ Reporting Station
Clear Clear  
Wind Chill: 15°   Ceiling: Unl
Heat Index: 21°   Visibility: 10mi
Dew Point: 14°   Wind: 5mph
Humidity: 74%   Direction: 50°NE
Pressure: 30.04"   Gusts: NA
Location:  37.22°N, 108.5°W
Report Text: KCEZ 290753Z AUTO 05004KT 10SM CLR M06/M10 A3004 RMK AO2 SLP157 T10611100
Loading
Personal Weather Stations






























Interactive Weather Map New forecast layout! Learn more

10-Day Weather Forecast

Advertisements
Track Severe Weather on mobile